Bodoco, Brazil
Current Conditions -  °F | °C
As of 2:00 AM on Monday 22 Dec 2014 (Local Time) from SBJU Reporting Station
Few Clouds Few Clouds  
Wind Chill: 82°   Ceiling: Unl
Heat Index: 85°   Visibility: 6mi
Dew Point: 68°   Wind: 6mph
Humidity: 62%   Direction: 110°ESE
Pressure: 29.94"   Gusts: NA
Location:  7.78°S, 39.94°W
Report Text: SBJU 220500Z 11005KT 9999 FEW020 28/20 Q1014
Loading
Personal Weather Stations






























Interactive Weather Map New forecast layout! Learn more

10-Day Weather Forecast

Advertisements
Track Severe Weather on mobile